createdAt,value
2023-02-12T00:01:33.774Z,98766.14
2023-02-12T00:04:04.137Z,98768.41
2023-02-12T00:06:32.247Z,98763.70
2023-02-12T00:09:00.386Z,98766.62
2023-02-12T00:11:29.736Z,98767.45
2023-02-12T00:13:58.574Z,98764.80
2023-02-12T00:16:29.101Z,98761.62
2023-02-12T00:18:59.025Z,98759.89
2023-02-12T00:21:27.704Z,98755.27
2023-02-12T00:23:56.283Z,98753.23
2023-02-12T00:26:25.129Z,98747.90
2023-02-12T00:28:54.624Z,98748.61
2023-02-12T00:31:26.748Z,98743.78
2023-02-12T00:34:00.667Z,98745.27
2023-02-12T00:36:31.439Z,98742.92
2023-02-12T00:39:01.550Z,98748.83
2023-02-12T00:41:30.088Z,98747.21
2023-02-12T00:43:58.322Z,98746.48
2023-02-12T00:46:26.674Z,98747.75
2023-02-12T00:48:56.794Z,98744.17
2023-02-12T00:51:24.776Z,98744.05
2023-02-12T00:53:55.350Z,98736.54
2023-02-12T00:56:23.446Z,98732.75
2023-02-12T00:58:52.574Z,98735.61
2023-02-12T01:01:20.706Z,98738.50
2023-02-12T01:03:48.840Z,98735.73
2023-02-12T01:06:16.807Z,98729.45
2023-02-12T01:08:47.369Z,98726.92
2023-02-12T01:11:15.575Z,98731.22
2023-02-12T01:13:43.707Z,98741.27
2023-02-12T01:16:18.043Z,98731.23
2023-02-12T01:18:47.350Z,98732.02
2023-02-12T01:21:21.825Z,98730.66
2023-02-12T01:23:50.686Z,98734.33
2023-02-12T01:26:21.463Z,98738.36
2023-02-12T01:28:53.500Z,98742.39
2023-02-12T01:31:24.361Z,98737.10
2023-02-12T01:33:54.992Z,98738.90
2023-02-12T01:36:27.297Z,98736.06
2023-02-12T01:38:56.787Z,98739.17
2023-02-12T01:41:32.617Z,98740.45
2023-02-12T01:44:13.475Z,98750.05
2023-02-12T01:46:43.746Z,98740.52
2023-02-12T01:49:29.707Z,98735.63
2023-02-12T01:52:27.500Z,98735.73
2023-02-12T01:54:59.303Z,98739.33
2023-02-12T01:57:31.081Z,98741.59
2023-02-12T02:00:01.779Z,98740.49
2023-02-12T02:02:32.272Z,98743.97
2023-02-12T02:05:03.679Z,98744.20
2023-02-12T02:07:32.995Z,98746.52
2023-02-12T02:10:02.143Z,98747.27
2023-02-12T02:12:49.936Z,98747.83
2023-02-12T02:15:18.323Z,98749.51
2023-02-12T02:17:53.234Z,98751.04
2023-02-12T02:20:39.967Z,98750.64
2023-02-12T02:23:16.992Z,98751.79
2023-02-12T02:26:20.820Z,98755.63
2023-02-12T02:28:58.231Z,98753.27
2023-02-12T02:31:44.102Z,98759.21
2023-02-12T02:34:19.425Z,98762.81
2023-02-12T02:37:03.753Z,98769.05
2023-02-12T02:39:42.165Z,98763.39
2023-02-12T02:42:23.736Z,98757.09
2023-02-12T02:45:04.305Z,98757.05
2023-02-12T02:47:37.870Z,98750.77
2023-02-12T02:50:10.976Z,98766.21
2023-02-12T02:52:52.521Z,98768.65
2023-02-12T02:55:25.382Z,98766.39
2023-02-12T02:58:25.834Z,98768.70
2023-02-12T03:00:59.325Z,98768.80
2023-02-12T03:03:34.398Z,98761.90
2023-02-12T03:06:29.732Z,98759.30
2023-02-12T03:09:05.425Z,98765.52
2023-02-12T03:11:34.586Z,98772.55
2023-02-12T03:14:25.989Z,98771.29
2023-02-12T03:17:10.042Z,98765.45
2023-02-12T03:19:51.608Z,98772.07
2023-02-12T03:22:31.585Z,98769.91
2023-02-12T03:25:21.550Z,98768.44
2023-02-12T03:28:09.823Z,98773.17
2023-02-12T03:31:02.850Z,98780.23
2023-02-12T03:33:59.083Z,98779.84
2023-02-12T03:36:31.719Z,98784.80
2023-02-12T03:39:09.029Z,98795.61
2023-02-12T03:41:48.131Z,98797.81
2023-02-12T03:44:56.696Z,98794.79
2023-02-12T03:47:38.956Z,98798.64
2023-02-12T03:50:11.010Z,98798.10
2023-02-12T03:52:39.323Z,98799.61
2023-02-12T03:55:08.434Z,98800.59
2023-02-12T03:57:45.223Z,98802.86
2023-02-12T04:00:19.294Z,98805.38
2023-02-12T04:02:49.018Z,98808.48
2023-02-12T04:05:28.450Z,98806.71
2023-02-12T04:07:58.868Z,98811.14
2023-02-12T04:11:07.991Z,98817.25
2023-02-12T04:14:19.499Z,98818.36
2023-02-12T04:17:08.921Z,98818.15
2023-02-12T04:20:05.489Z,98816.42
2023-02-12T04:22:58.332Z,98816.71
2023-02-12T04:25:48.606Z,98816.17
2023-02-12T04:28:39.245Z,98814.05
2023-02-12T04:31:24.263Z,98801.21
2023-02-12T04:34:13.986Z,98805.52
2023-02-12T04:36:52.890Z,98807.84
2023-02-12T04:39:25.855Z,98812.21
2023-02-12T04:41:54.048Z,98803.66
2023-02-12T04:44:24.683Z,98818.85
2023-02-12T04:46:53.179Z,98833.94
2023-02-12T04:49:23.197Z,98833.91
2023-02-12T04:51:51.634Z,98838.49
2023-02-12T04:54:21.974Z,98842.34
2023-02-12T04:56:50.873Z,98840.08
2023-02-12T04:59:18.966Z,98840.63
2023-02-12T05:01:47.111Z,98846.36
2023-02-12T05:04:16.892Z,98842.67
2023-02-12T05:06:46.645Z,98838.02
2023-02-12T05:09:20.713Z,98847.42
2023-02-12T05:11:48.879Z,98851.22
2023-02-12T05:14:18.300Z,98853.39
2023-02-12T05:16:46.309Z,98859.44
2023-02-12T05:19:14.288Z,98856.95
2023-02-12T05:21:42.348Z,98860.00
2023-02-12T05:24:10.696Z,98866.89
2023-02-12T05:26:39.958Z,98870.15
2023-02-12T05:29:08.217Z,98877.81
2023-02-12T05:31:36.318Z,98880.11
2023-02-12T05:34:04.509Z,98884.48
2023-02-12T05:36:33.097Z,98886.45
2023-02-12T05:39:01.038Z,98891.89
2023-02-12T05:41:29.521Z,98894.11
2023-02-12T05:43:57.563Z,98903.08
2023-02-12T05:46:25.532Z,98908.80
2023-02-12T05:48:53.969Z,98917.86
2023-02-12T05:51:25.153Z,98917.79
2023-02-12T05:53:58.992Z,98920.00
2023-02-12T05:56:33.328Z,98927.43
2023-02-12T05:59:08.936Z,98931.84
2023-02-12T06:01:41.896Z,98935.85
2023-02-12T06:04:18.974Z,98945.54
2023-02-12T06:06:48.493Z,98943.83
2023-02-12T06:09:16.713Z,98944.14
2023-02-12T06:11:44.924Z,98943.33
2023-02-12T06:14:15.801Z,98947.87
2023-02-12T06:16:48.243Z,98942.80
2023-02-12T06:19:16.871Z,98940.90
2023-02-12T06:21:46.340Z,98944.90
2023-02-12T06:24:16.452Z,98947.73
2023-02-12T06:26:50.324Z,98946.14
2023-02-12T06:29:20.691Z,98952.77
2023-02-12T06:31:49.340Z,98956.21
2023-02-12T06:34:18.466Z,98962.81
2023-02-12T06:36:47.829Z,98970.22
2023-02-12T06:39:17.536Z,98967.30
2023-02-12T06:41:45.751Z,98968.49
2023-02-12T06:44:13.772Z,98975.61
2023-02-12T06:46:42.549Z,98972.77
2023-02-12T06:49:14.329Z,98977.38
2023-02-12T06:51:42.741Z,98983.63
2023-02-12T06:54:16.863Z,98979.84
2023-02-12T06:56:45.386Z,98982.41
2023-02-12T06:59:16.363Z,98984.86
2023-02-12T07:01:46.628Z,98989.73
2023-02-12T07:04:14.901Z,98986.63
2023-02-12T07:06:42.980Z,98985.30
2023-02-12T07:09:10.968Z,98987.65
2023-02-12T07:11:39.961Z,98988.44
2023-02-12T07:14:07.914Z,98990.96
2023-02-12T07:16:36.003Z,98992.23
2023-02-12T07:19:04.780Z,98997.69
2023-02-12T07:21:33.208Z,99004.48
2023-02-12T07:24:01.252Z,99007.13
2023-02-12T07:26:29.337Z,99008.99
2023-02-12T07:28:58.850Z,99016.38
2023-02-12T07:31:27.123Z,99019.20
2023-02-12T07:33:57.368Z,99014.83
2023-02-12T07:36:28.189Z,99022.62
2023-02-12T07:38:57.309Z,99022.43
2023-02-12T07:41:30.743Z,99026.41
2023-02-12T07:44:16.757Z,99030.05
2023-02-12T07:46:48.611Z,99026.70
2023-02-12T07:49:19.667Z,99022.40
2023-02-12T07:51:49.372Z,99023.55
2023-02-12T07:54:17.352Z,99030.91
2023-02-12T07:56:47.199Z,99036.31
2023-02-12T07:59:18.198Z,99043.39
2023-02-12T08:01:52.926Z,99042.59
2023-02-12T08:04:24.038Z,99045.63
2023-02-12T08:06:54.575Z,99048.95
2023-02-12T08:09:25.965Z,99051.01
2023-02-12T08:11:55.820Z,99051.61
2023-02-12T08:14:24.092Z,99049.77
2023-02-12T08:16:53.091Z,99052.77
2023-02-12T08:19:25.790Z,99048.60
2023-02-12T08:21:56.885Z,99047.90
2023-02-12T08:24:25.887Z,99048.23
2023-02-12T08:26:55.344Z,99048.88
2023-02-12T08:29:27.735Z,99052.55
2023-02-12T08:31:59.500Z,99057.50
2023-02-12T08:34:31.160Z,99063.45
2023-02-12T08:36:59.758Z,99064.04
2023-02-12T08:39:29.453Z,99067.71
2023-02-12T08:41:59.242Z,99068.33
2023-02-12T08:44:27.526Z,99073.14
2023-02-12T08:46:58.433Z,99075.38
2023-02-12T08:49:29.411Z,99079.38
2023-02-12T08:51:58.982Z,99080.55
2023-02-12T08:54:29.449Z,99078.67
2023-02-12T08:57:01.696Z,99073.85
2023-02-12T08:59:30.358Z,99073.80
2023-02-12T09:01:59.720Z,99065.53
2023-02-12T09:04:29.009Z,99073.80
2023-02-12T09:06:57.398Z,99080.15
2023-02-12T09:09:25.449Z,99083.29
2023-02-12T09:11:53.507Z,99086.84
2023-02-12T09:14:24.417Z,99086.70
2023-02-12T09:16:55.160Z,99094.08
2023-02-12T09:19:23.805Z,99102.77
2023-02-12T09:21:55.798Z,99109.10
2023-02-12T09:24:27.877Z,99115.13
2023-02-12T09:26:56.961Z,99116.36
2023-02-12T09:29:25.517Z,99120.88
2023-02-12T09:31:53.748Z,99126.52
2023-02-12T09:34:21.920Z,99128.74
2023-02-12T09:36:49.968Z,99133.52
2023-02-12T09:39:17.897Z,99127.55
2023-02-12T09:41:54.556Z,99124.57
2023-02-12T09:44:48.242Z,99125.88
2023-02-12T09:47:36.394Z,99125.91
2023-02-12T09:50:13.954Z,99121.81
2023-02-12T09:52:41.959Z,99121.98
2023-02-12T09:55:19.922Z,99115.19
2023-02-12T09:57:48.470Z,99110.63
2023-02-12T10:00:23.668Z,99116.67
2023-02-12T10:02:53.946Z,99115.23
2023-02-12T10:05:32.378Z,99115.04
2023-02-12T10:08:06.312Z,99116.15
2023-02-12T10:11:10.300Z,99120.11
2023-02-12T10:13:41.270Z,99117.88
2023-02-12T10:16:38.457Z,99116.44
2023-02-12T10:19:24.147Z,99113.40
2023-02-12T10:22:11.207Z,99115.25
2023-02-12T10:24:59.974Z,99116.26
2023-02-12T10:27:43.306Z,99109.33
2023-02-12T10:30:59.105Z,99108.34
2023-02-12T10:33:32.618Z,99111.98
2023-02-12T10:36:16.313Z,99114.20
2023-02-12T10:38:50.699Z,99124.21
2023-02-12T10:41:19.066Z,99121.16
2023-02-12T10:43:47.190Z,99124.75
2023-02-12T10:46:16.682Z,99133.46
2023-02-12T10:48:48.776Z,99119.28
2023-02-12T10:51:46.524Z,99122.14
2023-02-12T10:54:41.234Z,99128.34
2023-02-12T10:57:21.351Z,99124.20
2023-02-12T10:59:53.249Z,99126.10
2023-02-12T11:02:26.060Z,99128.92
2023-02-12T11:04:56.048Z,99129.77
2023-02-12T11:07:26.346Z,99123.70
2023-02-12T11:09:56.840Z,99123.73
2023-02-12T11:12:38.668Z,99126.77
2023-02-12T11:15:15.753Z,99136.71
2023-02-12T11:17:46.330Z,99129.84
2023-02-12T11:20:20.898Z,99127.92
2023-02-12T11:23:00.302Z,99125.48
2023-02-12T11:25:31.432Z,99124.84
2023-02-12T11:28:13.897Z,99121.73
2023-02-12T11:31:20.406Z,99127.09
2023-02-12T11:34:06.367Z,99129.23
2023-02-12T11:36:39.110Z,99133.65
2023-02-12T11:39:21.406Z,99136.30
2023-02-12T11:41:56.229Z,99135.21
2023-02-12T11:44:30.500Z,99135.88
2023-02-12T11:47:09.642Z,99141.77
2023-02-12T11:49:56.692Z,99134.77
2023-02-12T11:52:29.498Z,99133.52
2023-02-12T11:55:01.453Z,99128.64
2023-02-12T11:57:46.553Z,99134.80
2023-02-12T12:00:18.303Z,99138.44
2023-02-12T12:03:02.684Z,99138.47
2023-02-12T12:05:38.395Z,99134.80
2023-02-12T12:08:36.185Z,99133.52
2023-02-12T12:11:13.324Z,99132.87
2023-02-12T12:13:56.432Z,99132.85
2023-02-12T12:17:13.476Z,99145.45
2023-02-12T12:19:57.188Z,99147.39
2023-02-12T12:22:35.933Z,99146.32
2023-02-12T12:25:27.300Z,99145.64
2023-02-12T12:28:29.156Z,99152.02
2023-02-12T12:31:15.400Z,99147.64
2023-02-12T12:34:06.817Z,99146.43
2023-02-12T12:37:07.979Z,99144.52
2023-02-12T12:40:04.951Z,99147.19
2023-02-12T12:42:59.170Z,99153.71
2023-02-12T12:45:55.116Z,99152.85
2023-02-12T12:48:56.257Z,99150.67
2023-02-12T12:51:36.452Z,99149.41
2023-02-12T12:54:58.767Z,99155.48
2023-02-12T12:57:54.982Z,99161.33
2023-02-12T13:00:25.934Z,99154.81
2023-02-12T13:03:12.923Z,99157.05
2023-02-12T13:05:59.358Z,99162.27
2023-02-12T13:08:40.548Z,99165.41
2023-02-12T13:11:08.452Z,99166.64
2023-02-12T13:13:41.914Z,99168.23
2023-02-12T13:16:42.425Z,99170.08
2023-02-12T13:19:37.259Z,99167.83
2023-02-12T13:22:09.285Z,99171.55
2023-02-12T13:24:43.064Z,99169.28
2023-02-12T13:27:22.809Z,99169.59
2023-02-12T13:29:55.293Z,99174.31
2023-02-12T13:32:40.654Z,99179.94
2023-02-12T13:35:18.294Z,99178.91
2023-02-12T13:37:58.634Z,99186.94
2023-02-12T13:40:30.054Z,99190.51
2023-02-12T13:43:13.918Z,99194.58
2023-02-12T13:45:46.995Z,99201.72
2023-02-12T13:48:46.102Z,99205.73
2023-02-12T13:51:42.052Z,99202.91
2023-02-12T13:54:26.212Z,99209.71
2023-02-12T13:57:02.940Z,99209.15
2023-02-12T13:59:39.977Z,99212.43
2023-02-12T14:02:39.006Z,99219.38
2023-02-12T14:05:31.464Z,99207.61
2023-02-12T14:08:05.292Z,99206.94
2023-02-12T14:10:39.953Z,99210.09
2023-02-12T14:13:16.416Z,99204.75
2023-02-12T14:15:54.362Z,99203.11
2023-02-12T14:18:30.608Z,99212.27
2023-02-12T14:21:19.436Z,99214.92
2023-02-12T14:23:47.668Z,99216.45
2023-02-12T14:26:22.326Z,99214.77
2023-02-12T14:29:13.187Z,99208.52
2023-02-12T14:31:43.092Z,99204.13
2023-02-12T14:34:11.528Z,99208.95
2023-02-12T14:36:44.190Z,99208.61
2023-02-12T14:39:24.369Z,99208.26
2023-02-12T14:42:13.337Z,99212.48
2023-02-12T14:44:49.169Z,99208.20
2023-02-12T14:47:29.337Z,99211.58
2023-02-12T14:50:07.253Z,99214.64
2023-02-12T14:52:41.327Z,99221.33
2023-02-12T14:55:26.122Z,99218.83
2023-02-12T14:58:01.305Z,99220.11
2023-02-12T15:00:41.491Z,99215.79
2023-02-12T15:03:12.893Z,99210.59
2023-02-12T15:05:56.577Z,99215.46
2023-02-12T15:08:50.876Z,99219.55
2023-02-12T15:11:33.285Z,99222.34
2023-02-12T15:14:22.524Z,99214.79
2023-02-12T15:17:19.146Z,99217.59
2023-02-12T15:19:53.156Z,99220.13
2023-02-12T15:22:35.806Z,99226.34
2023-02-12T15:25:27.535Z,99226.45
2023-02-12T15:28:01.997Z,99231.70
2023-02-12T15:30:35.662Z,99238.65
2023-02-12T15:33:07.079Z,99246.58
2023-02-12T15:35:45.905Z,99255.09
2023-02-12T15:38:36.882Z,99258.83
2023-02-12T15:41:06.614Z,99263.59
2023-02-12T15:43:40.970Z,99269.42
2023-02-12T15:46:18.307Z,99270.14
2023-02-12T15:48:47.131Z,99275.00
2023-02-12T15:51:39.795Z,99282.95
2023-02-12T15:54:20.308Z,99287.33
2023-02-12T15:56:52.743Z,99288.02
2023-02-12T15:59:24.276Z,99296.16
2023-02-12T16:02:01.192Z,99299.16
2023-02-12T16:04:37.395Z,99305.06
2023-02-12T16:07:08.367Z,99307.48
2023-02-12T16:09:37.160Z,99316.73
2023-02-12T16:12:12.364Z,99322.94
2023-02-12T16:14:43.890Z,99325.03
2023-02-12T16:17:23.245Z,99328.68
2023-02-12T16:20:05.103Z,99330.87
2023-02-12T16:22:40.168Z,99334.34
2023-02-12T16:25:16.497Z,99340.66
2023-02-12T16:28:05.951Z,99348.77
2023-02-12T16:30:42.814Z,99344.36
2023-02-12T16:33:45.501Z,99353.48
2023-02-12T16:36:20.755Z,99354.04
2023-02-12T16:38:55.391Z,99356.21
2023-02-12T16:41:27.338Z,99362.79
2023-02-12T16:44:01.643Z,99364.26
2023-02-12T16:46:33.104Z,99365.79
2023-02-12T16:49:03.182Z,99366.47
2023-02-12T16:51:33.826Z,99371.64
2023-02-12T16:54:04.665Z,99376.02
2023-02-12T16:56:40.748Z,99380.63
2023-02-12T16:59:09.652Z,99383.56
2023-02-12T17:01:37.738Z,99389.13
2023-02-12T17:04:08.873Z,99387.30
2023-02-12T17:06:36.884Z,99388.98
2023-02-12T17:09:04.939Z,99394.27
2023-02-12T17:11:33.055Z,99392.61
2023-02-12T17:14:01.198Z,99392.55
2023-02-12T17:16:31.511Z,99401.73
2023-02-12T17:19:00.824Z,99403.08
2023-02-12T17:21:37.892Z,99405.61
2023-02-12T17:24:21.309Z,99410.65
2023-02-12T17:26:51.269Z,99409.34
2023-02-12T17:29:21.761Z,99413.13
2023-02-12T17:31:51.865Z,99413.93
2023-02-12T17:34:20.516Z,99419.86
2023-02-12T17:36:48.747Z,99421.77
2023-02-12T17:39:17.849Z,99420.80
2023-02-12T17:41:46.943Z,99423.73
2023-02-12T17:44:16.586Z,99426.06
2023-02-12T17:46:45.922Z,99430.66
2023-02-12T17:49:14.027Z,99428.70
2023-02-12T17:51:43.612Z,99433.05
2023-02-12T17:54:12.395Z,99433.55
2023-02-12T17:56:40.507Z,99435.40
2023-02-12T17:59:09.955Z,99439.33
2023-02-12T18:01:39.818Z,99436.87
2023-02-12T18:04:08.080Z,99446.14
2023-02-12T18:06:36.188Z,99445.48
2023-02-12T18:09:04.688Z,99450.90
2023-02-12T18:11:33.465Z,99449.27
2023-02-12T18:14:02.342Z,99451.69
2023-02-12T18:16:32.797Z,99456.73
2023-02-12T18:19:04.547Z,99457.48
2023-02-12T18:21:35.240Z,99461.64
2023-02-12T18:24:03.963Z,99463.90
2023-02-12T18:26:32.824Z,99460.38
2023-02-12T18:29:01.221Z,99464.71
2023-02-12T18:31:29.980Z,99460.78
2023-02-12T18:33:59.499Z,99460.82
2023-02-12T18:36:27.632Z,99458.98
2023-02-12T18:38:55.729Z,99453.21
2023-02-12T18:41:26.578Z,99457.52
2023-02-12T18:43:56.684Z,99458.50
2023-02-12T18:46:30.066Z,99458.89
2023-02-12T18:48:59.954Z,99458.13
2023-02-12T18:51:32.107Z,99454.52
2023-02-12T18:54:05.336Z,99458.03
2023-02-12T18:56:36.882Z,99460.38
2023-02-12T18:59:06.036Z,99465.54
2023-02-12T19:01:36.177Z,99467.11
2023-02-12T19:04:07.421Z,99474.08
2023-02-12T19:06:57.727Z,99478.10
2023-02-12T19:09:27.037Z,99481.15
2023-02-12T19:11:57.696Z,99485.71
2023-02-12T19:14:27.974Z,99488.77
2023-02-12T19:16:55.933Z,99491.44
2023-02-12T19:19:24.972Z,99489.51
2023-02-12T19:21:53.030Z,99494.95
2023-02-12T19:24:21.258Z,99502.13
2023-02-12T19:26:52.301Z,99504.91
2023-02-12T19:29:20.674Z,99506.45
2023-02-12T19:31:49.422Z,99507.60
2023-02-12T19:34:20.268Z,99505.16
2023-02-12T19:36:49.913Z,99505.27
2023-02-12T19:39:21.668Z,99507.48
2023-02-12T19:41:51.219Z,99510.61
2023-02-12T19:44:22.764Z,99519.48
2023-02-12T19:46:51.667Z,99519.01
2023-02-12T19:49:22.747Z,99521.20
2023-02-12T19:51:51.092Z,99525.96
2023-02-12T19:54:22.467Z,99529.08
2023-02-12T19:56:52.951Z,99528.77
2023-02-12T19:59:23.991Z,99530.36
2023-02-12T20:01:53.254Z,99535.73
2023-02-12T20:04:23.048Z,99535.31
2023-02-12T20:06:51.331Z,99542.13
2023-02-12T20:09:22.443Z,99544.67
2023-02-12T20:11:51.300Z,99540.92
2023-02-12T20:14:21.131Z,99543.20
2023-02-12T20:16:53.796Z,99540.50
2023-02-12T20:19:25.864Z,99547.13
2023-02-12T20:21:55.919Z,99551.83
2023-02-12T20:24:26.425Z,99552.91
2023-02-12T20:26:56.643Z,99555.62
2023-02-12T20:29:25.470Z,99560.94
2023-02-12T20:31:54.378Z,99567.59
2023-02-12T20:34:22.760Z,99564.23
2023-02-12T20:36:52.638Z,99562.63
2023-02-12T20:39:21.333Z,99561.74
2023-02-12T20:41:50.659Z,99561.88
2023-02-12T20:44:24.026Z,99566.04
2023-02-12T20:46:56.483Z,99561.76
2023-02-12T20:49:28.355Z,99562.90
2023-02-12T20:51:57.250Z,99559.79
2023-02-12T20:54:26.046Z,99562.95
2023-02-12T20:56:54.335Z,99564.88
2023-02-12T20:59:22.495Z,99568.45
2023-02-12T21:01:50.725Z,99567.48
2023-02-12T21:04:20.481Z,99569.45
2023-02-12T21:06:48.956Z,99568.11
2023-02-12T21:09:19.134Z,99565.19
2023-02-12T21:11:47.952Z,99563.02
2023-02-12T21:14:24.797Z,99564.79
2023-02-12T21:16:55.189Z,99564.91
2023-02-12T21:19:24.661Z,99559.27
2023-02-12T21:21:53.141Z,99561.47
2023-02-12T21:24:25.894Z,99562.61
2023-02-12T21:26:56.480Z,99565.78
2023-02-12T21:29:27.571Z,99566.85
2023-02-12T21:31:55.923Z,99566.86
2023-02-12T21:34:24.384Z,99562.11
2023-02-12T21:36:54.765Z,99569.67
2023-02-12T21:39:27.353Z,99569.71
2023-02-12T21:42:02.885Z,99572.77
2023-02-12T21:44:35.648Z,99581.34
2023-02-12T21:47:04.664Z,99580.85
2023-02-12T21:49:33.096Z,99578.06
2023-02-12T21:52:04.650Z,99575.89
2023-02-12T21:54:33.647Z,99568.67
2023-02-12T21:57:02.523Z,99572.40
2023-02-12T21:59:32.344Z,99577.16
2023-02-12T22:02:01.950Z,99573.44
2023-02-12T22:04:32.378Z,99571.56
2023-02-12T22:07:03.293Z,99572.95
2023-02-12T22:09:32.118Z,99578.31
2023-02-12T22:12:00.238Z,99578.73
2023-02-12T22:14:28.267Z,99581.42
2023-02-12T22:16:56.347Z,99580.71
2023-02-12T22:19:24.621Z,99586.59
2023-02-12T22:21:53.802Z,99588.06
2023-02-12T22:24:22.194Z,99581.85
2023-02-12T22:26:50.306Z,99585.53
2023-02-12T22:29:18.488Z,99594.92
2023-02-12T22:31:47.138Z,99591.49
2023-02-12T22:34:19.158Z,99585.97
2023-02-12T22:36:48.695Z,99581.36
2023-02-12T22:39:17.759Z,99581.09
2023-02-12T22:41:46.618Z,99586.98
2023-02-12T22:44:16.379Z,99585.70
2023-02-12T22:46:44.784Z,99593.82
2023-02-12T22:49:12.828Z,99599.71
2023-02-12T22:51:41.354Z,99598.17
2023-02-12T22:54:15.466Z,99595.60
2023-02-12T22:56:44.188Z,99592.20
2023-02-12T22:59:12.735Z,99594.34
2023-02-12T23:01:43.468Z,99595.77
2023-02-12T23:04:19.061Z,99596.64
2023-02-12T23:06:47.300Z,99594.09
2023-02-12T23:09:19.108Z,99600.46
2023-02-12T23:11:48.068Z,99607.77
2023-02-12T23:14:16.180Z,99610.00
2023-02-12T23:16:44.188Z,99610.48
2023-02-12T23:19:12.853Z,99610.25
2023-02-12T23:21:40.850Z,99611.77
2023-02-12T23:24:13.970Z,99609.13
2023-02-12T23:26:42.097Z,99604.64
2023-02-12T23:29:10.148Z,99601.55
2023-02-12T23:31:38.903Z,99599.34
2023-02-12T23:34:07.044Z,99593.27
2023-02-12T23:36:35.589Z,99594.67
2023-02-12T23:39:05.864Z,99591.89
2023-02-12T23:41:34.366Z,99590.79
2023-02-12T23:44:02.573Z,99586.23
2023-02-12T23:46:30.899Z,99580.50
2023-02-12T23:48:59.061Z,99578.09
2023-02-12T23:51:27.034Z,99581.23
2023-02-12T23:53:55.031Z,99577.20
2023-02-12T23:56:23.666Z,99575.63
2023-02-12T23:58:51.620Z,99572.30
